Terminal Aerodrome Forecast
Issued by NWS Austin/San Antonio, TX

Home | Current Version | Previous Version | Text Only | Print | Product List | Glossary On
Versions: 1 2 3 4 5 6 7 8 9 10 11 12 13 14 15 16 17 18 19 20 21 22 23 24 25 26 27 28 29 30 31
000
FTUS44 KEWX 191420 AAD
TAFDRT
TAF AMD
KDRT 191420Z 1914/2012 VRB03KT P6SM FEW008
     FM191700 33006KT P6SM SKC
     FM191800 34012KT P6SM SKC
     FM200000 01006KT P6SM SKC=

USA.gov is the U.S. government's official web portal to all federal, state and local government web resources and services.